createdAt,value
2022-11-07T00:00:33.684Z,1.70
2022-11-07T00:03:04.067Z,2.13
2022-11-07T00:05:33.140Z,1.97
2022-11-07T00:08:02.127Z,1.90
2022-11-07T00:10:31.036Z,2.20
2022-11-07T00:13:00.048Z,2.23
2022-11-07T00:15:29.379Z,2.10
2022-11-07T00:17:59.430Z,1.80
2022-11-07T00:20:29.778Z,1.80
2022-11-07T00:22:58.729Z,2.20
2022-11-07T00:25:27.711Z,1.80
2022-11-07T00:27:56.676Z,2.00
2022-11-07T00:30:25.703Z,2.00
2022-11-07T00:32:59.858Z,2.30
2022-11-07T00:35:30.836Z,2.33
2022-11-07T00:37:59.809Z,1.70
2022-11-07T00:40:28.800Z,2.00
2022-11-07T00:42:57.739Z,2.40
2022-11-07T00:45:26.728Z,2.53
2022-11-07T00:47:55.743Z,2.03
2022-11-07T00:50:24.706Z,2.23
2022-11-07T00:52:57.868Z,2.33
2022-11-07T00:55:26.812Z,2.27
2022-11-07T00:57:56.488Z,2.23
2022-11-07T01:00:25.779Z,2.27
2022-11-07T01:03:09.573Z,2.40
2022-11-07T01:05:38.582Z,2.00
2022-11-07T01:08:09.012Z,2.40
2022-11-07T01:10:42.619Z,2.43
2022-11-07T01:13:11.846Z,2.07
2022-11-07T01:15:42.523Z,1.80
2022-11-07T01:18:11.693Z,1.97
2022-11-07T01:20:41.700Z,1.90
2022-11-07T01:23:12.385Z,2.33
2022-11-07T01:25:42.014Z,2.03
2022-11-07T01:28:12.000Z,1.83
2022-11-07T01:30:42.074Z,1.83
2022-11-07T01:33:11.851Z,2.07
2022-11-07T01:35:41.633Z,1.90
2022-11-07T01:38:11.943Z,1.90
2022-11-07T01:40:58.526Z,1.97
2022-11-07T01:43:43.550Z,1.97
2022-11-07T01:46:12.786Z,2.23
2022-11-07T01:48:45.282Z,2.10
2022-11-07T01:51:15.773Z,1.50
2022-11-07T01:53:46.567Z,2.30
2022-11-07T01:56:19.888Z,2.03
2022-11-07T01:58:49.597Z,2.07
2022-11-07T02:01:19.465Z,2.00
2022-11-07T02:03:49.044Z,1.70
2022-11-07T02:06:25.159Z,2.17
2022-11-07T02:08:56.006Z,1.87
2022-11-07T02:11:25.840Z,1.77
2022-11-07T02:13:54.840Z,1.93
2022-11-07T02:16:24.017Z,1.97
2022-11-07T02:18:53.074Z,1.60
2022-11-07T02:21:31.196Z,2.00
2022-11-07T02:24:09.814Z,2.47
2022-11-07T02:26:42.560Z,1.90
2022-11-07T02:29:12.963Z,2.20
2022-11-07T02:31:41.930Z,1.47
2022-11-07T02:34:10.924Z,1.90
2022-11-07T02:36:39.947Z,1.80
2022-11-07T02:39:09.316Z,1.80
2022-11-07T02:41:39.810Z,2.07
2022-11-07T02:44:12.659Z,2.00
2022-11-07T02:46:42.405Z,1.70
2022-11-07T02:49:11.678Z,1.67
2022-11-07T02:51:40.639Z,2.00
2022-11-07T02:54:09.634Z,1.93
2022-11-07T02:56:39.983Z,1.60
2022-11-07T02:59:08.932Z,2.10
2022-11-07T03:01:37.982Z,2.20
2022-11-07T03:04:07.014Z,2.40
2022-11-07T03:06:35.999Z,1.90
2022-11-07T03:09:05.343Z,1.87
2022-11-07T03:11:34.363Z,2.13
2022-11-07T03:14:04.716Z,1.77
2022-11-07T03:16:33.648Z,1.70
2022-11-07T03:19:02.612Z,2.13
2022-11-07T03:21:31.579Z,1.83
2022-11-07T03:24:00.658Z,1.63
2022-11-07T03:26:29.759Z,2.10
2022-11-07T03:28:59.295Z,1.93
2022-11-07T03:31:29.686Z,2.27
2022-11-07T03:33:58.780Z,2.03
2022-11-07T03:36:27.744Z,1.90
2022-11-07T03:38:56.964Z,1.80
2022-11-07T03:41:25.939Z,1.60
2022-11-07T03:43:54.993Z,2.03
2022-11-07T03:46:23.998Z,1.80
2022-11-07T03:48:54.336Z,2.07
2022-11-07T03:51:23.363Z,1.53
2022-11-07T03:53:52.378Z,1.43
2022-11-07T03:56:21.423Z,1.63
2022-11-07T03:58:50.413Z,1.77
2022-11-07T04:01:19.512Z,1.60
2022-11-07T04:03:51.651Z,1.43
2022-11-07T04:06:24.196Z,1.67
2022-11-07T04:08:53.183Z,1.73
2022-11-07T04:11:39.826Z,2.07
2022-11-07T04:14:27.356Z,1.80
2022-11-07T04:17:14.142Z,1.90
2022-11-07T04:19:43.095Z,1.60
2022-11-07T04:22:13.401Z,2.17
2022-11-07T04:24:45.727Z,2.00
2022-11-07T04:27:34.050Z,1.67
2022-11-07T04:30:19.006Z,1.80
2022-11-07T04:32:48.990Z,1.93
2022-11-07T04:35:18.699Z,2.20
2022-11-07T04:37:49.676Z,2.20
2022-11-07T04:40:19.689Z,1.50
2022-11-07T04:42:49.884Z,1.77
2022-11-07T04:45:19.486Z,2.00
2022-11-07T04:47:48.895Z,1.70
2022-11-07T04:50:20.048Z,1.70
2022-11-07T04:52:50.443Z,1.70
2022-11-07T04:55:22.016Z,1.60
2022-11-07T04:57:51.189Z,1.67
2022-11-07T05:00:21.275Z,1.93
2022-11-07T05:02:51.189Z,1.10
2022-11-07T05:05:20.799Z,1.60
2022-11-07T05:07:51.080Z,2.53
2022-11-07T05:10:22.784Z,1.33
2022-11-07T05:12:52.102Z,1.67
2022-11-07T05:15:21.387Z,1.73
2022-11-07T05:17:50.401Z,1.77
2022-11-07T05:20:29.366Z,1.70
2022-11-07T05:23:19.161Z,2.13
2022-11-07T05:25:50.551Z,1.50
2022-11-07T05:28:29.854Z,1.70
2022-11-07T05:31:02.300Z,1.73
2022-11-07T05:33:31.290Z,1.93
2022-11-07T05:36:10.323Z,1.70
2022-11-07T05:38:42.512Z,1.97
2022-11-07T05:41:11.505Z,2.20
2022-11-07T05:43:40.828Z,1.47
2022-11-07T05:46:09.942Z,1.80
2022-11-07T05:48:39.486Z,1.87
2022-11-07T05:51:09.611Z,1.73
2022-11-07T05:53:39.985Z,1.60
2022-11-07T05:56:09.015Z,1.70
2022-11-07T05:58:38.023Z,1.77
2022-11-07T06:01:07.952Z,1.63
2022-11-07T06:03:36.903Z,1.77
2022-11-07T06:06:06.236Z,1.73
2022-11-07T06:08:35.199Z,2.13
2022-11-07T06:11:07.350Z,1.97
2022-11-07T06:13:36.479Z,2.10
2022-11-07T06:16:06.239Z,1.80
2022-11-07T06:18:41.367Z,2.07
2022-11-07T06:21:10.767Z,1.63
2022-11-07T06:23:39.753Z,1.77
2022-11-07T06:26:10.202Z,2.37
2022-11-07T06:28:39.237Z,2.17
2022-11-07T06:31:08.228Z,1.90
2022-11-07T06:33:37.206Z,1.60
2022-11-07T06:36:08.361Z,2.10
2022-11-07T06:38:38.058Z,2.10
2022-11-07T06:41:10.414Z,2.30
2022-11-07T06:43:40.214Z,2.13
2022-11-07T06:46:11.545Z,1.90
2022-11-07T06:48:40.594Z,2.80
2022-11-07T06:51:11.177Z,1.90
2022-11-07T06:53:40.363Z,2.47
2022-11-07T06:56:15.450Z,2.00
2022-11-07T06:58:44.582Z,1.70
2022-11-07T07:01:15.059Z,1.80
2022-11-07T07:03:44.905Z,2.00
2022-11-07T07:06:17.269Z,2.10
2022-11-07T07:08:47.118Z,1.60
2022-11-07T07:11:18.165Z,2.13
2022-11-07T07:13:47.173Z,2.00
2022-11-07T07:16:16.209Z,2.00
2022-11-07T07:18:45.199Z,1.73
2022-11-07T07:21:15.618Z,2.00
2022-11-07T07:23:44.621Z,1.63
2022-11-07T07:26:15.270Z,2.10
2022-11-07T07:28:45.980Z,2.17
2022-11-07T07:31:23.996Z,1.80
2022-11-07T07:33:52.950Z,2.30
2022-11-07T07:36:22.086Z,2.30
2022-11-07T07:38:51.845Z,1.43
2022-11-07T07:41:21.309Z,2.20
2022-11-07T07:43:51.615Z,2.03
2022-11-07T07:46:24.199Z,1.73
2022-11-07T07:48:53.647Z,2.00
2022-11-07T07:51:22.745Z,1.90
2022-11-07T07:53:51.767Z,1.70
2022-11-07T07:56:20.737Z,1.30
2022-11-07T07:58:51.008Z,1.80
2022-11-07T08:01:20.305Z,1.90
2022-11-07T08:04:01.387Z,2.27
2022-11-07T08:06:32.364Z,2.30
2022-11-07T08:09:01.346Z,2.33
2022-11-07T08:11:30.365Z,1.90
2022-11-07T08:14:01.705Z,2.10
2022-11-07T08:16:30.898Z,1.97
2022-11-07T08:18:59.925Z,2.00
2022-11-07T08:21:28.934Z,1.67
2022-11-07T08:23:57.893Z,1.80
2022-11-07T08:26:27.022Z,1.40
2022-11-07T08:28:56.268Z,1.53
2022-11-07T08:31:26.619Z,1.67
2022-11-07T08:33:58.778Z,1.80
2022-11-07T08:36:28.356Z,1.67
2022-11-07T08:38:57.467Z,2.10
2022-11-07T08:41:26.450Z,1.42
2022-11-07T08:43:55.452Z,1.43
2022-11-07T08:46:25.791Z,1.55
2022-11-07T08:48:54.748Z,1.63
2022-11-07T08:51:23.760Z,1.77
2022-11-07T08:53:52.739Z,1.50
2022-11-07T08:56:21.702Z,1.80
2022-11-07T08:58:50.701Z,1.40
2022-11-07T09:01:20.033Z,1.20
2022-11-07T09:03:56.748Z,1.77
2022-11-07T09:06:27.121Z,1.60
2022-11-07T09:08:56.187Z,1.60
2022-11-07T09:11:25.434Z,1.93
2022-11-07T09:13:55.258Z,1.77
2022-11-07T09:16:25.621Z,1.53
2022-11-07T09:18:55.996Z,2.10
2022-11-07T09:21:24.953Z,1.92
2022-11-07T09:23:54.209Z,1.97
2022-11-07T09:26:23.242Z,1.97
2022-11-07T09:28:55.046Z,1.43
2022-11-07T09:31:27.658Z,1.60
2022-11-07T09:33:58.030Z,1.73
2022-11-07T09:36:26.965Z,2.05
2022-11-07T09:38:57.204Z,1.98
2022-11-07T09:41:37.705Z,1.70
2022-11-07T09:44:24.308Z,2.65
2022-11-07T09:47:00.467Z,1.70
2022-11-07T09:49:37.785Z,1.38
2022-11-07T09:52:17.104Z,1.30
2022-11-07T09:54:50.617Z,1.60
2022-11-07T09:57:20.914Z,1.52
2022-11-07T09:59:55.416Z,1.30
2022-11-07T10:02:28.412Z,1.65
2022-11-07T10:05:03.188Z,1.67
2022-11-07T10:07:47.269Z,1.55
2022-11-07T10:10:24.445Z,2.03
2022-11-07T10:13:14.757Z,1.48
2022-11-07T10:15:55.362Z,1.50
2022-11-07T10:18:38.589Z,1.67
2022-11-07T10:21:37.599Z,2.13
2022-11-07T10:24:27.413Z,1.40
2022-11-07T10:26:58.526Z,1.77
2022-11-07T10:29:43.245Z,2.15
2022-11-07T10:32:23.871Z,1.70
2022-11-07T10:35:00.365Z,1.77
2022-11-07T10:37:30.732Z,2.03
2022-11-07T10:39:59.709Z,2.03
2022-11-07T10:42:32.383Z,1.88
2022-11-07T10:45:01.398Z,2.08
2022-11-07T10:47:30.866Z,2.25
2022-11-07T10:50:01.779Z,1.98
2022-11-07T10:52:32.309Z,2.22
2022-11-07T10:55:08.998Z,2.08
2022-11-07T10:57:38.041Z,1.80
2022-11-07T11:00:24.186Z,1.95
2022-11-07T11:02:56.172Z,1.80
2022-11-07T11:05:28.565Z,1.20
2022-11-07T11:08:10.011Z,2.40
2022-11-07T11:10:40.481Z,2.38
2022-11-07T11:13:24.388Z,1.85
2022-11-07T11:15:53.503Z,1.90
2022-11-07T11:18:22.822Z,1.70
2022-11-07T11:20:58.135Z,1.63
2022-11-07T11:23:31.662Z,2.13
2022-11-07T11:26:02.642Z,2.05
2022-11-07T11:28:35.563Z,2.13
2022-11-07T11:31:07.396Z,1.90
2022-11-07T11:33:43.054Z,1.30
2022-11-07T11:36:19.079Z,2.03
2022-11-07T11:38:54.628Z,2.00
2022-11-07T11:41:32.953Z,2.30
2022-11-07T11:44:08.064Z,2.05
2022-11-07T11:46:43.864Z,1.88
2022-11-07T11:49:18.995Z,1.90
2022-11-07T11:51:52.309Z,2.00
2022-11-07T11:54:22.844Z,1.55
2022-11-07T11:56:54.304Z,1.70
2022-11-07T11:59:52.779Z,2.05
2022-11-07T12:02:51.109Z,1.77
2022-11-07T12:05:48.669Z,1.95
2022-11-07T12:08:30.332Z,2.50
2022-11-07T12:11:06.529Z,2.20
2022-11-07T12:13:43.569Z,1.83
2022-11-07T12:16:26.884Z,2.03
2022-11-07T12:19:04.644Z,1.63
2022-11-07T12:21:37.787Z,1.92
2022-11-07T12:24:31.740Z,1.70
2022-11-07T12:27:11.735Z,2.53
2022-11-07T12:29:59.595Z,1.83
2022-11-07T12:32:36.658Z,1.65
2022-11-07T12:35:21.723Z,2.15
2022-11-07T12:38:20.879Z,2.60
2022-11-07T12:40:59.012Z,2.15
2022-11-07T12:43:39.867Z,1.90
2022-11-07T12:46:15.404Z,2.08
2022-11-07T12:49:05.680Z,2.28
2022-11-07T12:51:47.039Z,2.15
2022-11-07T12:54:47.742Z,2.03
2022-11-07T12:57:20.523Z,1.80
2022-11-07T12:59:56.882Z,2.00
2022-11-07T13:02:48.065Z,2.20
2022-11-07T13:05:36.536Z,2.35
2022-11-07T13:08:16.278Z,1.75
2022-11-07T13:10:54.242Z,1.88
2022-11-07T13:13:32.876Z,1.73
2022-11-07T13:16:15.352Z,1.83
2022-11-07T13:18:45.003Z,2.00
2022-11-07T13:21:14.208Z,2.25
2022-11-07T13:23:43.535Z,2.08
2022-11-07T13:26:44.579Z,2.10
2022-11-07T13:29:04.509Z,2.13
2022-11-07T13:31:40.233Z,2.03
2022-11-07T13:34:25.012Z,2.28
2022-11-07T13:37:01.318Z,1.98
2022-11-07T13:39:31.630Z,1.77
2022-11-07T13:42:01.806Z,2.03
2022-11-07T13:44:36.545Z,2.38
2022-11-07T13:47:13.572Z,1.70
2022-11-07T13:49:46.112Z,1.80
2022-11-07T13:52:23.422Z,1.95
2022-11-07T13:54:58.120Z,2.25
2022-11-07T13:57:32.289Z,2.20
2022-11-07T14:00:05.169Z,2.08
2022-11-07T14:02:51.211Z,1.80
2022-11-07T14:05:23.833Z,1.67
2022-11-07T14:07:55.750Z,1.73
2022-11-07T14:10:27.703Z,1.95
2022-11-07T14:13:04.144Z,2.22
2022-11-07T14:15:33.177Z,1.52
2022-11-07T14:18:03.782Z,2.10
2022-11-07T14:20:32.774Z,1.67
2022-11-07T14:23:03.052Z,1.45
2022-11-07T14:25:34.121Z,1.70
2022-11-07T14:28:06.790Z,2.10
2022-11-07T14:30:41.140Z,2.33
2022-11-07T14:33:19.689Z,2.17
2022-11-07T14:35:51.603Z,1.80
2022-11-07T14:38:25.274Z,1.83
2022-11-07T14:40:56.041Z,2.20
2022-11-07T14:43:26.667Z,1.80
2022-11-07T14:46:17.407Z,1.73
2022-11-07T14:48:49.639Z,1.57
2022-11-07T14:51:22.717Z,2.07
2022-11-07T14:54:00.143Z,2.00
2022-11-07T14:56:32.767Z,2.30
2022-11-07T14:59:02.116Z,1.58
2022-11-07T15:01:33.411Z,1.90
2022-11-07T15:04:16.061Z,1.67
2022-11-07T15:06:46.170Z,1.80
2022-11-07T15:09:15.214Z,1.95
2022-11-07T15:11:57.085Z,1.63
2022-11-07T15:14:30.878Z,1.60
2022-11-07T15:17:01.022Z,1.43
2022-11-07T15:19:33.894Z,2.22
2022-11-07T15:22:06.114Z,1.90
2022-11-07T15:24:42.018Z,1.83
2022-11-07T15:27:22.007Z,1.85
2022-11-07T15:29:53.545Z,1.30
2022-11-07T15:32:24.935Z,2.50
2022-11-07T15:35:22.988Z,2.60
2022-11-07T15:37:54.181Z,1.80
2022-11-07T15:40:24.023Z,2.07
2022-11-07T15:42:53.471Z,2.20
2022-11-07T15:45:22.878Z,2.23
2022-11-07T15:47:52.332Z,2.43
2022-11-07T15:50:25.308Z,2.20
2022-11-07T15:52:55.186Z,1.90
2022-11-07T15:55:25.198Z,2.00
2022-11-07T15:57:55.206Z,1.90
2022-11-07T16:00:26.550Z,2.10
2022-11-07T16:02:55.655Z,1.87
2022-11-07T16:05:26.032Z,1.95
2022-11-07T16:07:55.094Z,1.47
2022-11-07T16:10:26.200Z,2.00
2022-11-07T16:12:55.606Z,1.80
2022-11-07T16:15:26.294Z,1.80
2022-11-07T16:17:55.941Z,2.00
2022-11-07T16:20:26.271Z,2.03
2022-11-07T16:22:55.281Z,2.07
2022-11-07T16:25:25.794Z,2.37
2022-11-07T16:27:57.066Z,2.83
2022-11-07T16:30:27.379Z,1.70
2022-11-07T16:32:56.668Z,2.07
2022-11-07T16:35:27.072Z,1.43
2022-11-07T16:37:56.194Z,1.37
2022-11-07T16:40:25.212Z,1.95
2022-11-07T16:42:54.158Z,1.80
2022-11-07T16:45:23.153Z,1.65
2022-11-07T16:47:52.115Z,1.90
2022-11-07T16:50:21.225Z,1.57
2022-11-07T16:52:51.548Z,1.73
2022-11-07T16:55:21.418Z,1.43
2022-11-07T16:57:50.450Z,2.07
2022-11-07T17:00:22.326Z,1.57
2022-11-07T17:02:51.736Z,1.53
2022-11-07T17:05:20.786Z,1.83
2022-11-07T17:07:51.713Z,1.50
2022-11-07T17:10:20.881Z,2.00
2022-11-07T17:12:49.854Z,1.70
2022-11-07T17:15:18.933Z,1.63
2022-11-07T17:17:48.277Z,1.80
2022-11-07T17:20:49.962Z,1.67
2022-11-07T17:23:12.806Z,1.70
2022-11-07T17:25:43.141Z,1.50
2022-11-07T17:28:12.145Z,1.40
2022-11-07T17:30:41.350Z,2.30
2022-11-07T17:33:10.330Z,2.10
2022-11-07T17:35:39.916Z,1.57
2022-11-07T17:38:10.722Z,2.07
2022-11-07T17:40:41.135Z,1.40
2022-11-07T17:43:10.232Z,1.88
2022-11-07T17:45:40.597Z,1.50
2022-11-07T17:48:10.723Z,2.13
2022-11-07T17:50:40.340Z,1.77
2022-11-07T17:53:09.380Z,2.30
2022-11-07T17:55:39.852Z,2.28
2022-11-07T17:58:11.798Z,1.95
2022-11-07T18:00:40.880Z,2.00
2022-11-07T18:03:10.139Z,2.03
2022-11-07T18:05:43.028Z,2.13
2022-11-07T18:08:25.267Z,2.38
2022-11-07T18:11:10.620Z,1.80
2022-11-07T18:13:40.404Z,2.10
2022-11-07T18:16:11.290Z,2.03
2022-11-07T18:18:43.825Z,2.40
2022-11-07T18:21:20.401Z,2.25
2022-11-07T18:23:55.768Z,2.00
2022-11-07T18:26:36.850Z,2.42
2022-11-07T18:29:08.860Z,2.50
2022-11-07T18:31:41.757Z,2.30
2022-11-07T18:34:15.599Z,2.33
2022-11-07T18:36:49.076Z,2.73
2022-11-07T18:39:23.678Z,2.37
2022-11-07T18:42:05.748Z,2.88
2022-11-07T18:44:34.906Z,2.70
2022-11-07T18:47:03.991Z,2.43
2022-11-07T18:49:35.956Z,2.70
2022-11-07T18:52:06.018Z,2.77
2022-11-07T18:54:44.265Z,3.20
2022-11-07T18:57:17.764Z,3.50
2022-11-07T18:59:50.609Z,2.57
2022-11-07T19:02:23.113Z,2.50
2022-11-07T19:04:59.874Z,2.70
2022-11-07T19:07:31.725Z,2.47
2022-11-07T19:10:01.338Z,2.87
2022-11-07T19:12:32.571Z,3.07
2022-11-07T19:15:01.768Z,3.00
2022-11-07T19:17:38.084Z,2.47
2022-11-07T19:20:08.969Z,3.07
2022-11-07T19:22:43.490Z,3.33
2022-11-07T19:25:13.103Z,2.17
2022-11-07T19:27:44.504Z,3.40
2022-11-07T19:30:16.061Z,3.13
2022-11-07T19:32:48.580Z,3.20
2022-11-07T19:35:21.079Z,2.40
2022-11-07T19:37:57.852Z,2.73
2022-11-07T19:40:27.150Z,3.40
2022-11-07T19:42:59.734Z,2.90
2022-11-07T19:45:37.352Z,2.57
2022-11-07T19:48:06.856Z,2.70
2022-11-07T19:50:37.895Z,2.40
2022-11-07T19:53:08.196Z,2.50
2022-11-07T19:55:38.486Z,2.58
2022-11-07T19:58:10.745Z,2.65
2022-11-07T20:00:42.039Z,2.47
2022-11-07T20:03:15.387Z,2.60
2022-11-07T20:05:48.929Z,2.73
2022-11-07T20:08:18.077Z,2.53
2022-11-07T20:10:48.715Z,3.00
2022-11-07T20:13:24.585Z,3.20
2022-11-07T20:15:59.768Z,2.90
2022-11-07T20:18:29.403Z,2.87
2022-11-07T20:21:05.126Z,2.87
2022-11-07T20:23:34.892Z,2.87
2022-11-07T20:26:07.790Z,2.30
2022-11-07T20:28:43.688Z,2.75
2022-11-07T20:31:13.886Z,3.20
2022-11-07T20:33:48.796Z,2.40
2022-11-07T20:36:21.963Z,2.30
2022-11-07T20:38:53.802Z,2.37
2022-11-07T20:41:27.174Z,3.10
2022-11-07T20:43:59.856Z,2.60
2022-11-07T20:46:31.217Z,2.53
2022-11-07T20:49:04.893Z,2.63
2022-11-07T20:51:34.379Z,2.63
2022-11-07T20:54:03.373Z,2.70
2022-11-07T20:56:33.771Z,2.53
2022-11-07T20:59:04.219Z,3.10
2022-11-07T21:01:36.996Z,2.90
2022-11-07T21:04:07.884Z,2.73
2022-11-07T21:06:37.528Z,3.03
2022-11-07T21:09:07.545Z,3.10
2022-11-07T21:11:37.573Z,3.10
2022-11-07T21:14:10.087Z,3.23
2022-11-07T21:16:39.286Z,2.63
2022-11-07T21:19:09.328Z,3.10
2022-11-07T21:21:38.297Z,2.50
2022-11-07T21:24:07.963Z,2.77
2022-11-07T21:26:39.915Z,2.67
2022-11-07T21:29:11.048Z,2.67
2022-11-07T21:31:41.095Z,2.53
2022-11-07T21:34:11.506Z,2.70
2022-11-07T21:36:40.622Z,2.30
2022-11-07T21:39:09.644Z,1.90
2022-11-07T21:41:38.622Z,2.00
2022-11-07T21:44:08.976Z,2.33
2022-11-07T21:46:38.058Z,2.30
2022-11-07T21:49:07.078Z,2.23
2022-11-07T21:51:38.608Z,2.30
2022-11-07T21:54:09.386Z,2.17
2022-11-07T21:56:40.560Z,2.23
2022-11-07T21:59:12.492Z,2.13
2022-11-07T22:01:42.108Z,1.53
2022-11-07T22:04:13.569Z,1.70
2022-11-07T22:06:44.539Z,2.40
2022-11-07T22:09:16.933Z,1.90
2022-11-07T22:11:46.202Z,2.10
2022-11-07T22:14:18.425Z,2.70
2022-11-07T22:16:50.340Z,2.33
2022-11-07T22:19:19.799Z,1.93
2022-11-07T22:21:50.677Z,1.93
2022-11-07T22:24:19.656Z,2.40
2022-11-07T22:26:48.689Z,1.80
2022-11-07T22:29:19.060Z,2.00
2022-11-07T22:31:48.015Z,1.80
2022-11-07T22:34:17.036Z,1.90
2022-11-07T22:36:46.360Z,2.20
2022-11-07T22:39:15.488Z,1.70
2022-11-07T22:41:44.647Z,2.13
2022-11-07T22:44:13.623Z,1.93
2022-11-07T22:46:44.126Z,1.93
2022-11-07T22:49:13.083Z,2.03
2022-11-07T22:51:42.060Z,1.80
2022-11-07T22:54:13.653Z,2.10
2022-11-07T22:56:42.792Z,1.52
2022-11-07T22:59:12.811Z,2.17
2022-11-07T23:01:44.394Z,1.50
2022-11-07T23:04:15.897Z,1.67
2022-11-07T23:06:45.661Z,1.57
2022-11-07T23:09:15.804Z,1.65
2022-11-07T23:11:47.472Z,1.70
2022-11-07T23:14:19.218Z,1.93
2022-11-07T23:16:51.379Z,1.60
2022-11-07T23:19:22.315Z,1.45
2022-11-07T23:21:51.773Z,1.67
2022-11-07T23:24:21.139Z,1.80
2022-11-07T23:26:50.756Z,1.70
2022-11-07T23:29:22.775Z,1.33
2022-11-07T23:31:53.902Z,1.60
2022-11-07T23:34:25.812Z,1.65
2022-11-07T23:36:54.775Z,1.60
2022-11-07T23:39:25.884Z,1.70
2022-11-07T23:41:54.865Z,1.60
2022-11-07T23:44:23.878Z,1.42
2022-11-07T23:47:11.702Z,1.50
2022-11-07T23:49:58.260Z,1.50
2022-11-07T23:52:27.254Z,2.10
2022-11-07T23:55:13.578Z,1.67
2022-11-07T23:57:56.534Z,1.60
